sensor_id;sensor_type;location;lat;lon;timestamp;P1;durP1;ratioP1;P2;durP2;ratioP2
16179;SDS011;8196;49.428;10.906;2023-05-16T00:01:45;5.35;;;4.68;;
16179;SDS011;8196;49.428;10.906;2023-05-16T00:04:11;5.93;;;4.68;;
16179;SDS011;8196;49.428;10.906;2023-05-16T00:06:38;6.07;;;4.72;;
16179;SDS011;8196;49.428;10.906;2023-05-16T00:09:05;5.90;;;4.68;;
16179;SDS011;8196;49.428;10.906;2023-05-16T00:11:32;5.72;;;4.60;;
16179;SDS011;8196;49.428;10.906;2023-05-16T00:13:59;6.40;;;5.30;;
16179;SDS011;8196;49.428;10.906;2023-05-16T00:16:25;6.43;;;4.90;;
16179;SDS011;8196;49.428;10.906;2023-05-16T00:18:55;8.63;;;5.00;;
16179;SDS011;8196;49.428;10.906;2023-05-16T00:21:24;6.18;;;5.20;;
16179;SDS011;8196;49.428;10.906;2023-05-16T00:23:51;6.53;;;4.95;;
16179;SDS011;8196;49.428;10.906;2023-05-16T00:26:18;6.22;;;5.13;;
16179;SDS011;8196;49.428;10.906;2023-05-16T00:28:45;7.25;;;5.03;;
16179;SDS011;8196;49.428;10.906;2023-05-16T00:31:11;7.68;;;5.32;;
16179;SDS011;8196;49.428;10.906;2023-05-16T00:33:38;5.90;;;5.05;;
16179;SDS011;8196;49.428;10.906;2023-05-16T00:36:05;7.95;;;5.07;;
16179;SDS011;8196;49.428;10.906;2023-05-16T00:38:32;7.18;;;5.57;;
16179;SDS011;8196;49.428;10.906;2023-05-16T00:40:58;5.93;;;5.20;;
16179;SDS011;8196;49.428;10.906;2023-05-16T00:43:25;7.55;;;5.45;;
16179;SDS011;8196;49.428;10.906;2023-05-16T00:45:52;7.13;;;5.78;;
16179;SDS011;8196;49.428;10.906;2023-05-16T00:48:19;5.95;;;5.25;;
16179;SDS011;8196;49.428;10.906;2023-05-16T00:50:46;7.50;;;5.45;;
16179;SDS011;8196;49.428;10.906;2023-05-16T00:53:12;9.27;;;5.20;;
16179;SDS011;8196;49.428;10.906;2023-05-16T00:55:39;8.45;;;5.35;;
16179;SDS011;8196;49.428;10.906;2023-05-16T00:58:06;8.30;;;5.53;;
16179;SDS011;8196;49.428;10.906;2023-05-16T01:00:32;6.55;;;5.35;;
16179;SDS011;8196;49.428;10.906;2023-05-16T01:02:59;8.05;;;5.45;;
16179;SDS011;8196;49.428;10.906;2023-05-16T01:05:27;9.15;;;5.57;;
16179;SDS011;8196;49.428;10.906;2023-05-16T01:07:54;6.88;;;5.25;;
16179;SDS011;8196;49.428;10.906;2023-05-16T01:10:21;9.18;;;5.85;;
16179;SDS011;8196;49.428;10.906;2023-05-16T01:15:27;9.35;;;5.45;;
16179;SDS011;8196;49.428;10.906;2023-05-16T01:18:05;6.88;;;5.32;;
16179;SDS011;8196;49.428;10.906;2023-05-16T01:20:51;6.80;;;5.53;;
16179;SDS011;8196;49.428;10.906;2023-05-16T01:23:26;7.38;;;5.82;;
16179;SDS011;8196;49.428;10.906;2023-05-16T01:26:14;7.57;;;5.78;;
16179;SDS011;8196;49.428;10.906;2023-05-16T01:28:45;7.13;;;5.45;;
16179;SDS011;8196;49.428;10.906;2023-05-16T01:31:13;8.43;;;5.78;;
16179;SDS011;8196;49.428;10.906;2023-05-16T01:33:41;9.57;;;6.32;;
16179;SDS011;8196;49.428;10.906;2023-05-16T01:44:22;6.40;;;5.43;;
16179;SDS011;8196;49.428;10.906;2023-05-16T01:46:56;7.53;;;5.50;;
16179;SDS011;8196;49.428;10.906;2023-05-16T01:51:59;6.93;;;5.90;;
16179;SDS011;8196;49.428;10.906;2023-05-16T01:54:31;7.65;;;5.10;;
16179;SDS011;8196;49.428;10.906;2023-05-16T01:57:00;8.80;;;5.70;;
16179;SDS011;8196;49.428;10.906;2023-05-16T01:59:30;5.93;;;5.18;;
16179;SDS011;8196;49.428;10.906;2023-05-16T02:01:58;8.82;;;6.47;;
16179;SDS011;8196;49.428;10.906;2023-05-16T02:04:25;7.45;;;5.10;;
16179;SDS011;8196;49.428;10.906;2023-05-16T02:06:51;8.80;;;6.82;;
16179;SDS011;8196;49.428;10.906;2023-05-16T02:09:18;6.10;;;5.22;;
16179;SDS011;8196;49.428;10.906;2023-05-16T02:11:45;8.70;;;5.65;;
16179;SDS011;8196;49.428;10.906;2023-05-16T02:14:12;8.82;;;5.95;;
16179;SDS011;8196;49.428;10.906;2023-05-16T02:16:39;7.80;;;5.70;;
16179;SDS011;8196;49.428;10.906;2023-05-16T02:19:06;8.35;;;5.57;;
16179;SDS011;8196;49.428;10.906;2023-05-16T02:21:32;7.00;;;5.90;;
16179;SDS011;8196;49.428;10.906;2023-05-16T02:23:59;8.43;;;5.90;;
16179;SDS011;8196;49.428;10.906;2023-05-16T02:26:26;8.32;;;6.07;;
16179;SDS011;8196;49.428;10.906;2023-05-16T02:28:53;7.43;;;6.13;;
16179;SDS011;8196;49.428;10.906;2023-05-16T02:31:35;8.73;;;6.40;;
16179;SDS011;8196;49.428;10.906;2023-05-16T02:34:02;7.65;;;5.88;;
16179;SDS011;8196;49.428;10.906;2023-05-16T02:36:28;9.23;;;6.95;;
16179;SDS011;8196;49.428;10.906;2023-05-16T02:38:55;9.02;;;6.20;;
16179;SDS011;8196;49.428;10.906;2023-05-16T02:41:22;7.55;;;6.35;;
16179;SDS011;8196;49.428;10.906;2023-05-16T02:43:49;7.07;;;5.93;;
16179;SDS011;8196;49.428;10.906;2023-05-16T02:46:20;8.60;;;6.05;;
16179;SDS011;8196;49.428;10.906;2023-05-16T02:48:48;6.90;;;5.60;;
16179;SDS011;8196;49.428;10.906;2023-05-16T02:51:17;9.00;;;6.50;;
16179;SDS011;8196;49.428;10.906;2023-05-16T02:53:45;7.70;;;5.85;;
16179;SDS011;8196;49.428;10.906;2023-05-16T02:56:12;7.90;;;6.15;;
16179;SDS011;8196;49.428;10.906;2023-05-16T02:58:39;6.03;;;5.10;;
16179;SDS011;8196;49.428;10.906;2023-05-16T03:01:07;8.25;;;6.40;;
16179;SDS011;8196;49.428;10.906;2023-05-16T03:03:35;8.60;;;5.57;;
16179;SDS011;8196;49.428;10.906;2023-05-16T03:06:03;8.40;;;5.95;;
16179;SDS011;8196;49.428;10.906;2023-05-16T03:08:29;6.30;;;5.55;;
16179;SDS011;8196;49.428;10.906;2023-05-16T03:10:56;13.05;;;6.35;;
16179;SDS011;8196;49.428;10.906;2023-05-16T03:13:23;8.07;;;6.10;;
16179;SDS011;8196;49.428;10.906;2023-05-16T03:15:50;8.45;;;6.93;;
16179;SDS011;8196;49.428;10.906;2023-05-16T03:18:18;10.20;;;6.18;;
16179;SDS011;8196;49.428;10.906;2023-05-16T03:20:44;11.32;;;6.13;;
16179;SDS011;8196;49.428;10.906;2023-05-16T03:23:11;8.57;;;6.32;;
16179;SDS011;8196;49.428;10.906;2023-05-16T03:25:38;7.53;;;6.18;;
16179;SDS011;8196;49.428;10.906;2023-05-16T03:28:05;9.63;;;6.05;;
16179;SDS011;8196;49.428;10.906;2023-05-16T03:30:33;7.70;;;5.82;;
16179;SDS011;8196;49.428;10.906;2023-05-16T03:33:00;8.27;;;6.28;;
16179;SDS011;8196;49.428;10.906;2023-05-16T03:35:27;6.97;;;5.75;;
16179;SDS011;8196;49.428;10.906;2023-05-16T03:37:54;7.20;;;5.90;;
16179;SDS011;8196;49.428;10.906;2023-05-16T03:40:21;12.45;;;6.88;;
16179;SDS011;8196;49.428;10.906;2023-05-16T03:42:47;7.68;;;6.00;;
16179;SDS011;8196;49.428;10.906;2023-05-16T03:45:14;8.05;;;6.10;;
16179;SDS011;8196;49.428;10.906;2023-05-16T03:47:41;8.13;;;5.85;;
16179;SDS011;8196;49.428;10.906;2023-05-16T03:50:08;9.98;;;6.55;;
16179;SDS011;8196;49.428;10.906;2023-05-16T03:52:35;7.13;;;5.68;;
16179;SDS011;8196;49.428;10.906;2023-05-16T03:55:02;9.32;;;7.05;;
16179;SDS011;8196;49.428;10.906;2023-05-16T03:57:30;9.50;;;6.47;;
16179;SDS011;8196;49.428;10.906;2023-05-16T03:59:58;8.80;;;6.55;;
16179;SDS011;8196;49.428;10.906;2023-05-16T04:02:25;6.55;;;5.35;;
16179;SDS011;8196;49.428;10.906;2023-05-16T04:04:52;8.73;;;6.28;;
16179;SDS011;8196;49.428;10.906;2023-05-16T04:07:19;7.55;;;6.00;;
16179;SDS011;8196;49.428;10.906;2023-05-16T04:09:49;9.27;;;5.90;;
16179;SDS011;8196;49.428;10.906;2023-05-16T04:12:16;9.00;;;6.07;;
16179;SDS011;8196;49.428;10.906;2023-05-16T04:14:43;8.27;;;6.15;;
16179;SDS011;8196;49.428;10.906;2023-05-16T04:17:10;6.63;;;5.45;;
16179;SDS011;8196;49.428;10.906;2023-05-16T04:19:38;9.40;;;5.95;;
16179;SDS011;8196;49.428;10.906;2023-05-16T04:22:04;8.23;;;6.18;;
16179;SDS011;8196;49.428;10.906;2023-05-16T04:24:31;7.53;;;5.85;;
16179;SDS011;8196;49.428;10.906;2023-05-16T04:26:58;7.95;;;6.13;;
16179;SDS011;8196;49.428;10.906;2023-05-16T04:29:25;8.27;;;6.35;;
16179;SDS011;8196;49.428;10.906;2023-05-16T04:31:51;8.73;;;6.28;;
16179;SDS011;8196;49.428;10.906;2023-05-16T04:34:19;7.80;;;6.18;;
16179;SDS011;8196;49.428;10.906;2023-05-16T04:36:45;9.25;;;6.07;;
16179;SDS011;8196;49.428;10.906;2023-05-16T04:39:12;7.38;;;6.13;;
16179;SDS011;8196;49.428;10.906;2023-05-16T04:41:39;11.43;;;6.25;;
16179;SDS011;8196;49.428;10.906;2023-05-16T04:44:06;13.27;;;6.03;;
16179;SDS011;8196;49.428;10.906;2023-05-16T04:46:33;7.85;;;5.65;;
16179;SDS011;8196;49.428;10.906;2023-05-16T04:48:59;8.77;;;6.07;;
16179;SDS011;8196;49.428;10.906;2023-05-16T04:51:26;10.25;;;6.70;;
16179;SDS011;8196;49.428;10.906;2023-05-16T04:53:53;8.02;;;6.25;;
16179;SDS011;8196;49.428;10.906;2023-05-16T04:56:20;7.57;;;6.53;;
16179;SDS011;8196;49.428;10.906;2023-05-16T04:58:47;8.25;;;6.55;;
16179;SDS011;8196;49.428;10.906;2023-05-16T05:01:14;7.70;;;6.25;;
16179;SDS011;8196;49.428;10.906;2023-05-16T05:03:41;7.97;;;6.50;;
16179;SDS011;8196;49.428;10.906;2023-05-16T05:06:07;9.02;;;6.65;;
16179;SDS011;8196;49.428;10.906;2023-05-16T05:08:34;8.23;;;6.90;;
16179;SDS011;8196;49.428;10.906;2023-05-16T05:11:01;7.90;;;6.43;;
16179;SDS011;8196;49.428;10.906;2023-05-16T05:13:28;8.90;;;6.15;;
16179;SDS011;8196;49.428;10.906;2023-05-16T05:15:54;8.88;;;6.88;;
16179;SDS011;8196;49.428;10.906;2023-05-16T05:18:21;7.22;;;6.07;;
16179;SDS011;8196;49.428;10.906;2023-05-16T05:20:48;8.07;;;6.32;;
16179;SDS011;8196;49.428;10.906;2023-05-16T05:23:15;8.52;;;6.43;;
16179;SDS011;8196;49.428;10.906;2023-05-16T05:25:42;8.20;;;6.28;;
16179;SDS011;8196;49.428;10.906;2023-05-16T05:28:09;9.23;;;6.97;;
16179;SDS011;8196;49.428;10.906;2023-05-16T05:30:35;7.93;;;6.22;;
16179;SDS011;8196;49.428;10.906;2023-05-16T05:33:02;8.13;;;6.50;;
16179;SDS011;8196;49.428;10.906;2023-05-16T05:37:56;9.38;;;6.65;;
16179;SDS011;8196;49.428;10.906;2023-05-16T05:40:22;9.90;;;6.55;;
16179;SDS011;8196;49.428;10.906;2023-05-16T05:42:49;11.63;;;7.18;;
16179;SDS011;8196;49.428;10.906;2023-05-16T05:45:16;7.53;;;6.45;;
16179;SDS011;8196;49.428;10.906;2023-05-16T05:47:43;10.48;;;7.10;;
16179;SDS011;8196;49.428;10.906;2023-05-16T05:50:10;9.57;;;6.85;;
16179;SDS011;8196;49.428;10.906;2023-05-16T05:52:37;9.38;;;6.78;;
16179;SDS011;8196;49.428;10.906;2023-05-16T05:55:04;9.20;;;7.25;;
16179;SDS011;8196;49.428;10.906;2023-05-16T05:57:31;10.13;;;6.82;;
16179;SDS011;8196;49.428;10.906;2023-05-16T05:59:58;8.32;;;6.28;;
16179;SDS011;8196;49.428;10.906;2023-05-16T06:02:25;8.35;;;6.80;;
16179;SDS011;8196;49.428;10.906;2023-05-16T06:04:52;10.35;;;7.32;;
16179;SDS011;8196;49.428;10.906;2023-05-16T06:07:19;8.85;;;6.97;;
16179;SDS011;8196;49.428;10.906;2023-05-16T06:09:46;9.65;;;7.30;;
16179;SDS011;8196;49.428;10.906;2023-05-16T06:12:12;8.85;;;6.20;;
16179;SDS011;8196;49.428;10.906;2023-05-16T06:14:39;8.40;;;6.95;;
16179;SDS011;8196;49.428;10.906;2023-05-16T06:17:06;10.30;;;7.20;;
16179;SDS011;8196;49.428;10.906;2023-05-16T06:19:33;9.15;;;6.78;;
16179;SDS011;8196;49.428;10.906;2023-05-16T06:21:59;9.40;;;6.57;;
16179;SDS011;8196;49.428;10.906;2023-05-16T06:24:26;7.90;;;7.10;;
16179;SDS011;8196;49.428;10.906;2023-05-16T06:26:54;7.38;;;6.22;;
16179;SDS011;8196;49.428;10.906;2023-05-16T06:29:21;8.07;;;6.82;;
16179;SDS011;8196;49.428;10.906;2023-05-16T06:31:48;8.20;;;6.72;;
16179;SDS011;8196;49.428;10.906;2023-05-16T06:34:15;9.43;;;6.63;;
16179;SDS011;8196;49.428;10.906;2023-05-16T06:36:41;8.77;;;6.57;;
16179;SDS011;8196;49.428;10.906;2023-05-16T06:39:09;9.82;;;6.72;;
16179;SDS011;8196;49.428;10.906;2023-05-16T06:41:36;8.18;;;6.78;;
16179;SDS011;8196;49.428;10.906;2023-05-16T06:44:02;7.05;;;6.25;;
16179;SDS011;8196;49.428;10.906;2023-05-16T06:46:30;8.00;;;6.80;;
16179;SDS011;8196;49.428;10.906;2023-05-16T06:48:58;10.25;;;6.75;;
16179;SDS011;8196;49.428;10.906;2023-05-16T06:51:24;8.70;;;6.63;;
16179;SDS011;8196;49.428;10.906;2023-05-16T06:53:51;8.40;;;6.70;;
16179;SDS011;8196;49.428;10.906;2023-05-16T06:56:18;7.95;;;6.82;;
16179;SDS011;8196;49.428;10.906;2023-05-16T06:58:45;8.45;;;6.53;;
16179;SDS011;8196;49.428;10.906;2023-05-16T07:01:11;9.18;;;6.95;;
16179;SDS011;8196;49.428;10.906;2023-05-16T07:03:38;8.13;;;6.70;;
16179;SDS011;8196;49.428;10.906;2023-05-16T07:06:05;7.85;;;6.65;;
16179;SDS011;8196;49.428;10.906;2023-05-16T07:08:32;7.60;;;6.78;;
16179;SDS011;8196;49.428;10.906;2023-05-16T07:11:01;11.23;;;7.38;;
16179;SDS011;8196;49.428;10.906;2023-05-16T07:13:27;9.93;;;6.40;;
16179;SDS011;8196;49.428;10.906;2023-05-16T07:15:54;8.02;;;6.47;;
16179;SDS011;8196;49.428;10.906;2023-05-16T07:18:21;6.93;;;5.97;;
16179;SDS011;8196;49.428;10.906;2023-05-16T07:20:48;8.63;;;6.18;;
16179;SDS011;8196;49.428;10.906;2023-05-16T07:23:14;6.93;;;5.57;;
16179;SDS011;8196;49.428;10.906;2023-05-16T07:25:41;8.05;;;6.15;;
16179;SDS011;8196;49.428;10.906;2023-05-16T07:28:08;6.68;;;5.95;;
16179;SDS011;8196;49.428;10.906;2023-05-16T07:30:35;7.40;;;5.80;;
16179;SDS011;8196;49.428;10.906;2023-05-16T07:33:02;8.15;;;6.45;;
16179;SDS011;8196;49.428;10.906;2023-05-16T07:35:28;7.45;;;6.35;;
16179;SDS011;8196;49.428;10.906;2023-05-16T07:37:55;7.07;;;6.38;;
16179;SDS011;8196;49.428;10.906;2023-05-16T07:40:22;7.70;;;5.72;;
16179;SDS011;8196;49.428;10.906;2023-05-16T07:42:53;7.72;;;6.45;;
16179;SDS011;8196;49.428;10.906;2023-05-16T07:45:20;8.10;;;6.65;;
16179;SDS011;8196;49.428;10.906;2023-05-16T07:47:47;7.78;;;6.53;;
16179;SDS011;8196;49.428;10.906;2023-05-16T07:50:14;9.57;;;7.00;;
16179;SDS011;8196;49.428;10.906;2023-05-16T07:52:40;7.68;;;6.63;;
16179;SDS011;8196;49.428;10.906;2023-05-16T07:55:07;7.47;;;6.68;;
16179;SDS011;8196;49.428;10.906;2023-05-16T07:57:34;8.40;;;7.10;;
16179;SDS011;8196;49.428;10.906;2023-05-16T08:00:01;7.72;;;6.72;;
16179;SDS011;8196;49.428;10.906;2023-05-16T08:02:29;7.95;;;6.95;;
16179;SDS011;8196;49.428;10.906;2023-05-16T08:04:59;8.90;;;6.45;;
16179;SDS011;8196;49.428;10.906;2023-05-16T08:07:25;9.00;;;6.53;;
16179;SDS011;8196;49.428;10.906;2023-05-16T08:09:52;8.82;;;6.63;;
16179;SDS011;8196;49.428;10.906;2023-05-16T08:12:19;8.35;;;6.50;;
16179;SDS011;8196;49.428;10.906;2023-05-16T08:14:46;6.47;;;5.88;;
16179;SDS011;8196;49.428;10.906;2023-05-16T08:17:13;7.35;;;6.43;;
16179;SDS011;8196;49.428;10.906;2023-05-16T08:19:39;7.72;;;6.55;;
16179;SDS011;8196;49.428;10.906;2023-05-16T08:22:06;9.10;;;6.15;;
16179;SDS011;8196;49.428;10.906;2023-05-16T08:24:35;6.20;;;5.45;;
16179;SDS011;8196;49.428;10.906;2023-05-16T08:27:01;7.40;;;5.80;;
16179;SDS011;8196;49.428;10.906;2023-05-16T08:29:28;6.90;;;5.93;;
16179;SDS011;8196;49.428;10.906;2023-05-16T08:31:57;7.40;;;6.05;;
16179;SDS011;8196;49.428;10.906;2023-05-16T08:34:24;6.38;;;5.75;;
16179;SDS011;8196;49.428;10.906;2023-05-16T08:36:51;8.32;;;6.75;;
16179;SDS011;8196;49.428;10.906;2023-05-16T08:39:19;8.77;;;7.10;;
16179;SDS011;8196;49.428;10.906;2023-05-16T08:41:46;9.05;;;6.72;;
16179;SDS011;8196;49.428;10.906;2023-05-16T08:44:13;9.95;;;6.97;;
16179;SDS011;8196;49.428;10.906;2023-05-16T08:46:50;7.53;;;6.72;;
16179;SDS011;8196;49.428;10.906;2023-05-16T08:49:18;7.38;;;6.32;;
16179;SDS011;8196;49.428;10.906;2023-05-16T08:51:46;7.40;;;5.80;;
16179;SDS011;8196;49.428;10.906;2023-05-16T08:54:14;7.40;;;6.22;;
16179;SDS011;8196;49.428;10.906;2023-05-16T08:56:42;9.55;;;6.38;;
16179;SDS011;8196;49.428;10.906;2023-05-16T08:59:10;6.68;;;5.53;;
16179;SDS011;8196;49.428;10.906;2023-05-16T09:01:37;7.30;;;6.47;;
16179;SDS011;8196;49.428;10.906;2023-05-16T09:04:05;7.82;;;6.35;;
16179;SDS011;8196;49.428;10.906;2023-05-16T09:06:34;5.82;;;5.28;;
16179;SDS011;8196;49.428;10.906;2023-05-16T09:09:02;7.10;;;6.32;;
16179;SDS011;8196;49.428;10.906;2023-05-16T09:11:29;6.05;;;5.22;;
16179;SDS011;8196;49.428;10.906;2023-05-16T09:13:56;7.28;;;6.47;;
16179;SDS011;8196;49.428;10.906;2023-05-16T09:16:23;8.32;;;6.28;;
16179;SDS011;8196;49.428;10.906;2023-05-16T09:18:54;5.75;;;5.13;;
16179;SDS011;8196;49.428;10.906;2023-05-16T09:21:27;6.90;;;6.18;;
16179;SDS011;8196;49.428;10.906;2023-05-16T09:23:55;6.55;;;5.93;;
16179;SDS011;8196;49.428;10.906;2023-05-16T09:26:22;7.90;;;6.80;;
16179;SDS011;8196;49.428;10.906;2023-05-16T09:28:52;9.48;;;6.35;;
16179;SDS011;8196;49.428;10.906;2023-05-16T09:31:23;9.95;;;7.07;;
16179;SDS011;8196;49.428;10.906;2023-05-16T09:33:52;6.97;;;6.30;;
16179;SDS011;8196;49.428;10.906;2023-05-16T09:36:21;7.15;;;6.40;;
16179;SDS011;8196;49.428;10.906;2023-05-16T09:38:49;7.32;;;6.53;;
16179;SDS011;8196;49.428;10.906;2023-05-16T09:41:17;8.13;;;6.40;;
16179;SDS011;8196;49.428;10.906;2023-05-16T09:43:43;6.60;;;5.97;;
16179;SDS011;8196;49.428;10.906;2023-05-16T09:46:12;7.13;;;6.43;;
16179;SDS011;8196;49.428;10.906;2023-05-16T09:48:40;7.28;;;6.10;;
16179;SDS011;8196;49.428;10.906;2023-05-16T09:51:10;8.68;;;5.80;;
16179;SDS011;8196;49.428;10.906;2023-05-16T09:53:39;6.18;;;5.57;;
16179;SDS011;8196;49.428;10.906;2023-05-16T09:56:10;7.05;;;5.93;;
16179;SDS011;8196;49.428;10.906;2023-05-16T09:58:38;6.60;;;5.97;;
16179;SDS011;8196;49.428;10.906;2023-05-16T10:01:06;6.65;;;5.95;;
16179;SDS011;8196;49.428;10.906;2023-05-16T10:03:35;8.70;;;5.93;;
16179;SDS011;8196;49.428;10.906;2023-05-16T10:06:04;7.30;;;6.22;;
16179;SDS011;8196;49.428;10.906;2023-05-16T10:08:32;7.57;;;6.47;;
16179;SDS011;8196;49.428;10.906;2023-05-16T10:11:03;9.00;;;7.72;;
16179;SDS011;8196;49.428;10.906;2023-05-16T10:13:32;7.65;;;6.20;;
16179;SDS011;8196;49.428;10.906;2023-05-16T10:16:05;7.53;;;6.78;;
16179;SDS011;8196;49.428;10.906;2023-05-16T10:18:34;10.13;;;6.68;;
16179;SDS011;8196;49.428;10.906;2023-05-16T10:21:04;8.23;;;6.57;;
16179;SDS011;8196;49.428;10.906;2023-05-16T10:23:36;7.40;;;5.65;;
16179;SDS011;8196;49.428;10.906;2023-05-16T10:26:06;7.13;;;5.53;;
16179;SDS011;8196;49.428;10.906;2023-05-16T10:28:34;6.13;;;5.53;;
16179;SDS011;8196;49.428;10.906;2023-05-16T10:31:02;5.18;;;4.68;;
16179;SDS011;8196;49.428;10.906;2023-05-16T10:33:29;6.47;;;5.20;;
16179;SDS011;8196;49.428;10.906;2023-05-16T10:35:56;7.40;;;6.13;;
16179;SDS011;8196;49.428;10.906;2023-05-16T10:38:24;6.75;;;5.68;;
16179;SDS011;8196;49.428;10.906;2023-05-16T10:40:53;5.90;;;5.30;;
16179;SDS011;8196;49.428;10.906;2023-05-16T10:43:22;5.07;;;4.53;;
16179;SDS011;8196;49.428;10.906;2023-05-16T10:45:54;5.18;;;4.72;;
16179;SDS011;8196;49.428;10.906;2023-05-16T10:48:38;6.85;;;4.35;;
16179;SDS011;8196;49.428;10.906;2023-05-16T10:54:07;4.43;;;3.97;;
16179;SDS011;8196;49.428;10.906;2023-05-16T10:56:35;4.20;;;3.80;;
16179;SDS011;8196;49.428;10.906;2023-05-16T10:59:03;4.32;;;3.90;;
16179;SDS011;8196;49.428;10.906;2023-05-16T11:01:33;3.78;;;3.47;;
16179;SDS011;8196;49.428;10.906;2023-05-16T11:04:01;4.15;;;3.75;;
16179;SDS011;8196;49.428;10.906;2023-05-16T11:09:07;7.05;;;4.40;;
16179;SDS011;8196;49.428;10.906;2023-05-16T11:11:44;7.05;;;4.40;;
16179;SDS011;8196;49.428;10.906;2023-05-16T11:19:48;5.78;;;3.90;;
16179;SDS011;8196;49.428;10.906;2023-05-16T11:27:29;4.55;;;4.15;;
16179;SDS011;8196;49.428;10.906;2023-05-16T11:32:44;5.13;;;3.92;;
16179;SDS011;8196;49.428;10.906;2023-05-16T11:35:13;4.60;;;4.20;;
16179;SDS011;8196;49.428;10.906;2023-05-16T11:37:42;4.25;;;3.88;;
16179;SDS011;8196;49.428;10.906;2023-05-16T11:40:10;4.65;;;4.10;;
16179;SDS011;8196;49.428;10.906;2023-05-16T11:42:39;4.20;;;3.80;;
16179;SDS011;8196;49.428;10.906;2023-05-16T11:45:09;4.82;;;4.32;;
16179;SDS011;8196;49.428;10.906;2023-05-16T11:47:38;5.00;;;3.40;;
16179;SDS011;8196;49.428;10.906;2023-05-16T11:50:14;4.40;;;3.53;;
16179;SDS011;8196;49.428;10.906;2023-05-16T11:52:43;10.43;;;4.10;;
16179;SDS011;8196;49.428;10.906;2023-05-16T11:55:11;5.93;;;3.80;;
16179;SDS011;8196;49.428;10.906;2023-05-16T11:57:53;5.72;;;3.75;;
16179;SDS011;8196;49.428;10.906;2023-05-16T12:00:22;5.10;;;4.10;;
16179;SDS011;8196;49.428;10.906;2023-05-16T12:02:52;7.40;;;4.15;;
16179;SDS011;8196;49.428;10.906;2023-05-16T12:05:27;4.90;;;4.50;;
16179;SDS011;8196;49.428;10.906;2023-05-16T12:07:56;5.20;;;4.35;;
16179;SDS011;8196;49.428;10.906;2023-05-16T12:10:24;6.53;;;3.90;;
16179;SDS011;8196;49.428;10.906;2023-05-16T12:12:52;6.25;;;5.65;;
16179;SDS011;8196;49.428;10.906;2023-05-16T12:15:20;4.75;;;4.00;;
16179;SDS011;8196;49.428;10.906;2023-05-16T12:17:47;4.95;;;4.45;;
16179;SDS011;8196;49.428;10.906;2023-05-16T12:20:14;4.82;;;4.32;;
16179;SDS011;8196;49.428;10.906;2023-05-16T12:22:43;4.47;;;4.07;;
16179;SDS011;8196;49.428;10.906;2023-05-16T12:25:26;6.35;;;4.38;;
16179;SDS011;8196;49.428;10.906;2023-05-16T12:27:57;4.45;;;3.65;;
16179;SDS011;8196;49.428;10.906;2023-05-16T12:30:26;4.03;;;3.40;;
16179;SDS011;8196;49.428;10.906;2023-05-16T12:32:55;4.70;;;4.30;;
16179;SDS011;8196;49.428;10.906;2023-05-16T12:35:24;3.53;;;3.22;;
16179;SDS011;8196;49.428;10.906;2023-05-16T12:37:55;4.13;;;3.72;;
16179;SDS011;8196;49.428;10.906;2023-05-16T12:40:22;4.40;;;3.70;;
16179;SDS011;8196;49.428;10.906;2023-05-16T12:42:49;4.32;;;3.53;;
16179;SDS011;8196;49.428;10.906;2023-05-16T12:45:17;4.15;;;3.75;;
16179;SDS011;8196;49.428;10.906;2023-05-16T12:47:44;4.45;;;3.55;;
16179;SDS011;8196;49.428;10.906;2023-05-16T12:50:13;4.03;;;3.53;;
16179;SDS011;8196;49.428;10.906;2023-05-16T12:55:28;3.97;;;3.20;;
16179;SDS011;8196;49.428;10.906;2023-05-16T12:57:55;4.10;;;3.70;;
16179;SDS011;8196;49.428;10.906;2023-05-16T13:00:25;4.82;;;3.72;;
16179;SDS011;8196;49.428;10.906;2023-05-16T13:02:53;5.18;;;3.03;;
16179;SDS011;8196;49.428;10.906;2023-05-16T13:05:20;4.40;;;3.10;;
16179;SDS011;8196;49.428;10.906;2023-05-16T13:07:48;6.85;;;3.60;;
16179;SDS011;8196;49.428;10.906;2023-05-16T13:10:17;3.80;;;3.42;;
16179;SDS011;8196;49.428;10.906;2023-05-16T13:12:44;4.93;;;3.55;;
16179;SDS011;8196;49.428;10.906;2023-05-16T13:15:11;4.45;;;3.15;;
16179;SDS011;8196;49.428;10.906;2023-05-16T13:17:39;3.97;;;3.58;;
16179;SDS011;8196;49.428;10.906;2023-05-16T13:20:07;4.40;;;3.70;;
16179;SDS011;8196;49.428;10.906;2023-05-16T13:22:35;3.33;;;3.03;;
16179;SDS011;8196;49.428;10.906;2023-05-16T13:25:02;3.38;;;3.08;;
16179;SDS011;8196;49.428;10.906;2023-05-16T13:27:31;3.38;;;2.70;;
16179;SDS011;8196;49.428;10.906;2023-05-16T13:29:59;3.20;;;2.90;;
16179;SDS011;8196;49.428;10.906;2023-05-16T13:32:26;3.25;;;2.70;;
16179;SDS011;8196;49.428;10.906;2023-05-16T13:34:53;3.03;;;2.67;;
16179;SDS011;8196;49.428;10.906;2023-05-16T13:37:20;10.18;;;3.25;;
16179;SDS011;8196;49.428;10.906;2023-05-16T13:39:49;4.20;;;2.95;;
16179;SDS011;8196;49.428;10.906;2023-05-16T13:42:16;3.03;;;2.67;;
16179;SDS011;8196;49.428;10.906;2023-05-16T13:44:43;3.45;;;3.15;;
16179;SDS011;8196;49.428;10.906;2023-05-16T13:47:10;3.25;;;2.88;;
16179;SDS011;8196;49.428;10.906;2023-05-16T13:49:36;2.85;;;2.65;;
16179;SDS011;8196;49.428;10.906;2023-05-16T13:52:04;4.47;;;3.00;;
16179;SDS011;8196;49.428;10.906;2023-05-16T13:54:32;8.52;;;2.50;;
16179;SDS011;8196;49.428;10.906;2023-05-16T13:56:58;2.20;;;2.00;;
16179;SDS011;8196;49.428;10.906;2023-05-16T13:59:27;2.22;;;1.92;;
16179;SDS011;8196;49.428;10.906;2023-05-16T14:02:14;3.65;;;2.40;;
16179;SDS011;8196;49.428;10.906;2023-05-16T14:04:40;2.40;;;2.20;;
16179;SDS011;8196;49.428;10.906;2023-05-16T14:07:07;3.20;;;2.00;;
16179;SDS011;8196;49.428;10.906;2023-05-16T14:09:34;2.38;;;2.17;;
16179;SDS011;8196;49.428;10.906;2023-05-16T14:12:05;2.60;;;2.40;;
16179;SDS011;8196;49.428;10.906;2023-05-16T14:14:33;2.70;;;2.50;;
16179;SDS011;8196;49.428;10.906;2023-05-16T14:17:01;4.53;;;2.33;;
16179;SDS011;8196;49.428;10.906;2023-05-16T14:19:29;4.93;;;2.40;;
16179;SDS011;8196;49.428;10.906;2023-05-16T14:21:56;3.15;;;2.20;;
16179;SDS011;8196;49.428;10.906;2023-05-16T14:24:23;4.78;;;2.28;;
16179;SDS011;8196;49.428;10.906;2023-05-16T14:26:50;2.63;;;2.10;;
16179;SDS011;8196;49.428;10.906;2023-05-16T14:29:23;2.50;;;1.98;;
16179;SDS011;8196;49.428;10.906;2023-05-16T14:31:50;2.25;;;1.70;;
16179;SDS011;8196;49.428;10.906;2023-05-16T14:34:18;2.22;;;1.73;;
16179;SDS011;8196;49.428;10.906;2023-05-16T14:36:44;3.17;;;1.70;;
16179;SDS011;8196;49.428;10.906;2023-05-16T14:39:11;6.30;;;3.60;;
16179;SDS011;8196;49.428;10.906;2023-05-16T14:41:38;2.10;;;1.95;;
16179;SDS011;8196;49.428;10.906;2023-05-16T14:44:05;2.15;;;1.60;;
16179;SDS011;8196;49.428;10.906;2023-05-16T14:46:32;2.60;;;1.98;;
16179;SDS011;8196;49.428;10.906;2023-05-16T14:48:59;3.40;;;1.95;;
16179;SDS011;8196;49.428;10.906;2023-05-16T14:51:26;4.30;;;1.90;;
16179;SDS011;8196;49.428;10.906;2023-05-16T14:53:53;2.42;;;2.00;;
16179;SDS011;8196;49.428;10.906;2023-05-16T14:56:20;1.67;;;1.58;;
16179;SDS011;8196;49.428;10.906;2023-05-16T14:58:47;2.15;;;1.60;;
16179;SDS011;8196;49.428;10.906;2023-05-16T15:01:14;3.70;;;2.05;;
16179;SDS011;8196;49.428;10.906;2023-05-16T15:03:41;1.70;;;1.60;;
16179;SDS011;8196;49.428;10.906;2023-05-16T15:06:20;1.58;;;1.38;;
16179;SDS011;8196;49.428;10.906;2023-05-16T15:08:47;1.92;;;1.45;;
16179;SDS011;8196;49.428;10.906;2023-05-16T15:11:14;1.50;;;1.40;;
16179;SDS011;8196;49.428;10.906;2023-05-16T15:13:41;3.60;;;1.70;;
16179;SDS011;8196;49.428;10.906;2023-05-16T15:16:07;1.73;;;1.60;;
16179;SDS011;8196;49.428;10.906;2023-05-16T15:18:34;1.48;;;1.38;;
16179;SDS011;8196;49.428;10.906;2023-05-16T15:21:01;2.60;;;1.60;;
16179;SDS011;8196;49.428;10.906;2023-05-16T15:23:28;1.48;;;1.38;;
16179;SDS011;8196;49.428;10.906;2023-05-16T15:25:55;1.73;;;1.60;;
16179;SDS011;8196;49.428;10.906;2023-05-16T15:28:22;1.92;;;1.70;;
16179;SDS011;8196;49.428;10.906;2023-05-16T15:30:49;2.30;;;1.55;;